Time;durP1;ratioP1;P1;durP2;ratioP2;P2;SDS_P1;SDS_P2;PMS_P1;PMS_P2;Temp;Humidity;BMP_temperature;BMP_pressure;BME280_temperature;BME280_humidity;BME280_pressure;Samples;Min_cycle;Max_cycle;Signal;HPM_P1;HPM_P2
2021/01/09 00:01:41;;;;;;;16.20;7.97;;;;;;;1.40;100.00;100780.48;1773765;80;21392;-62
2021/01/09 00:04:09;;;;;;;15.75;7.97;;;;;;;1.38;100.00;100796.77;1762288;81;21180;-61
2021/01/09 00:06:39;;;;;;;16.70;9.00;;;;;;;1.33;100.00;100784.85;1762388;81;21045;-62
2021/01/09 00:09:07;;;;;;;16.17;9.05;;;;;;;1.30;100.00;100788.80;1793695;80;21137;-62
2021/01/09 00:11:36;;;;;;;16.70;8.83;;;;;;;1.25;100.00;100786.59;1762368;81;21096;-62
2021/01/09 00:14:04;;;;;;;18.65;9.00;;;;;;;1.22;100.00;100798.02;1762413;81;21209;-63
2021/01/09 00:16:31;;;;;;;16.23;9.15;;;;;;;1.19;100.00;100796.69;1762208;81;21121;-63
2021/01/09 00:18:59;;;;;;;16.75;9.50;;;;;;;1.13;100.00;100814.70;1762390;81;21172;-61
2021/01/09 00:21:38;;;;;;;20.25;10.70;;;;;;;1.08;100.00;100807.20;1762264;81;21049;-62
2021/01/09 00:24:09;;;;;;;19.02;9.83;;;;;;;1.07;100.00;100821.70;1762427;81;21050;-62
2021/01/09 00:26:39;;;;;;;21.57;10.40;;;;;;;1.03;100.00;100806.72;1758936;81;21340;-62
2021/01/09 00:29:06;;;;;;;23.85;11.55;;;;;;;0.99;100.00;100813.73;1756622;81;20986;-62
2021/01/09 00:31:35;;;;;;;20.80;10.48;;;;;;;0.94;100.00;100817.69;1756668;81;21065;-63
2021/01/09 00:34:03;;;;;;;21.07;10.20;;;;;;;0.90;100.00;100817.65;1756695;81;21162;-62
2021/01/09 00:36:30;;;;;;;19.90;11.20;;;;;;;0.85;100.00;100819.83;1756354;81;21109;-63
2021/01/09 00:38:58;;;;;;;23.27;11.93;;;;;;;0.81;100.00;100808.81;1777726;80;22128;-63
2021/01/09 00:41:30;;;;;;;22.32;11.05;;;;;;;0.76;100.00;100817.11;1778206;80;20939;-64
2021/01/09 00:43:58;;;;;;;21.30;10.95;;;;;;;0.70;100.00;100811.38;1778258;80;21082;-63
2021/01/09 00:46:26;;;;;;;20.77;10.85;;;;;;;0.68;100.00;100812.23;1778334;80;21078;-63
2021/01/09 00:48:54;;;;;;;21.42;11.20;;;;;;;0.66;100.00;100816.63;1778265;80;21049;-63
2021/01/09 00:51:22;;;;;;;18.62;10.60;;;;;;;0.64;100.00;100814.41;1778304;80;21379;-61
2021/01/09 00:53:49;;;;;;;23.73;11.40;;;;;;;0.62;100.00;100812.20;1778149;80;21131;-61
2021/01/09 00:56:17;;;;;;;20.23;9.80;;;;;;;0.59;100.00;100820.10;1778328;80;21046;-62
2021/01/09 00:58:44;;;;;;;23.83;10.45;;;;;;;0.56;100.00;100832.40;1778181;80;21037;-62
2021/01/09 01:01:12;;;;;;;21.85;10.20;;;;;;;0.54;100.00;100826.20;1778287;80;21133;-61
2021/01/09 01:03:42;;;;;;;23.27;10.55;;;;;;;0.50;100.00;100827.05;1778341;80;21368;-61
2021/01/09 01:06:10;;;;;;;19.50;9.50;;;;;;;0.47;100.00;100822.21;1778200;80;21185;-61
2021/01/09 01:08:38;;;;;;;20.60;10.45;;;;;;;0.43;100.00;100820.84;1778361;80;21117;-62
2021/01/09 01:11:06;;;;;;;19.77;9.88;;;;;;;0.42;100.00;100812.94;1778259;80;21101;-61
2021/01/09 01:13:33;;;;;;;26.57;13.05;;;;;;;0.40;100.00;100808.95;1750187;80;21114;-61
2021/01/09 01:16:02;;;;;;;23.18;11.93;;;;;;;0.40;100.00;100809.41;1778289;80;22224;-61
2021/01/09 01:18:30;;;;;;;19.87;10.38;;;;;;;0.40;100.00;100804.99;1778262;80;21133;-61
2021/01/09 01:21:00;;;;;;;22.32;10.30;;;;;;;0.39;100.00;100805.00;1778154;80;21065;-62
2021/01/09 01:23:30;;;;;;;18.77;10.30;;;;;;;0.38;100.00;100800.59;1778251;80;21121;-60
2021/01/09 01:25:58;;;;;;;18.25;10.45;;;;;;;0.38;100.00;100791.36;1776609;80;21202;-61
2021/01/09 01:28:25;;;;;;;19.82;9.95;;;;;;;0.37;100.00;100780.37;1768748;80;21684;-62
2021/01/09 01:30:53;;;;;;;18.77;10.10;;;;;;;0.38;100.00;100784.77;1768611;80;21071;-61
2021/01/09 01:33:21;;;;;;;21.87;10.65;;;;;;;0.38;100.00;100782.13;1790451;80;21113;-61
2021/01/09 01:35:48;;;;;;;21.23;10.13;;;;;;;0.38;100.00;100784.77;1790458;80;21030;-61
2021/01/09 01:38:16;;;;;;;20.00;10.40;;;;;;;0.36;100.00;100771.55;1764555;80;21068;-61
2021/01/09 01:40:43;;;;;;;21.85;11.25;;;;;;;0.36;100.00;100772.01;1757524;81;21307;-60
2021/01/09 01:43:12;;;;;;;23.22;10.90;;;;;;;0.37;100.00;100770.69;1768884;81;20996;-60
2021/01/09 01:45:40;;;;;;;21.05;11.70;;;;;;;0.37;100.00;100764.54;1757681;81;21108;-61
2021/01/09 01:48:09;;;;;;;18.95;9.63;;;;;;;0.38;100.00;100772.45;1768978;81;22373;-61
2021/01/09 01:50:39;;;;;;;27.62;13.20;;;;;;;0.37;100.00;100777.27;1757704;81;21149;-61
2021/01/09 01:53:07;;;;;;;29.32;11.80;;;;;;;0.35;100.00;100768.92;1768905;81;21392;-61
2021/01/09 01:55:35;;;;;;;22.82;11.15;;;;;;;0.36;100.00;100774.64;1757561;81;21050;-61
2021/01/09 01:58:02;;;;;;;26.90;12.85;;;;;;;0.36;100.00;100770.69;1768826;81;21103;-60
2021/01/09 02:00:30;;;;;;;24.02;13.15;;;;;;;0.35;100.00;100754.42;1757521;81;21150;-61
2021/01/09 02:02:58;;;;;;;24.98;13.95;;;;;;;0.34;100.00;100749.56;1768924;81;21048;-61
2021/01/09 02:05:28;;;;;;;27.45;13.38;;;;;;;0.35;100.00;100745.19;1757500;81;21381;-60
2021/01/09 02:07:57;;;;;;;26.77;13.72;;;;;;;0.35;100.00;100748.69;1768877;81;21075;-60
2021/01/09 02:10:25;;;;;;;27.87;14.15;;;;;;;0.36;100.00;100742.54;1757539;81;21058;-60
2021/01/09 02:13:05;;;;;;;30.15;14.55;;;;;;;0.38;100.00;100746.52;1768892;81;21095;-60
2021/01/09 02:15:33;;;;;;;28.30;14.98;;;;;;;0.40;100.00;100755.33;1732060;81;21121;-60
2021/01/09 02:18:01;;;;;;;33.35;14.30;;;;;;;0.41;100.00;100765.00;1768919;81;21374;-60
2021/01/09 02:20:29;;;;;;;26.73;13.85;;;;;;;0.41;100.00;100764.55;1757201;81;21082;-60
2021/01/09 02:22:57;;;;;;;28.20;14.45;;;;;;;0.41;100.00;100773.78;1768857;80;21519;-60
2021/01/09 02:25:25;;;;;;;26.00;14.38;;;;;;;0.41;100.00;100776.88;1757230;81;21484;-61
2021/01/09 02:27:53;;;;;;;29.10;14.33;;;;;;;0.42;100.00;100776.00;1772567;80;21586;-60
2021/01/09 02:30:27;;;;;;;30.97;15.68;;;;;;;0.44;100.00;100780.85;1756696;81;22231;-60
2021/01/09 02:33:07;;;;;;;32.60;15.90;;;;;;;0.45;100.00;100783.93;1770796;80;21083;-60
2021/01/09 02:35:35;;;;;;;28.00;14.43;;;;;;;0.45;100.00;100777.34;1726380;81;21486;-60
2021/01/09 02:38:05;;;;;;;29.32;14.83;;;;;;;0.45;100.00;100783.93;1772545;80;21076;-61
2021/01/09 02:40:40;;;;;;;29.37;14.30;;;;;;;0.47;100.00;100776.91;1751612;81;21142;-60
2021/01/09 02:43:14;;;;;;;33.95;16.40;;;;;;;0.50;100.00;100790.12;1770763;81;21356;-60
2021/01/09 02:45:42;;;;;;;27.73;15.32;;;;;;;0.51;100.00;100785.28;1770893;80;21115;-61
2021/01/09 02:48:10;;;;;;;35.48;14.50;;;;;;;0.53;100.00;100786.17;1770802;81;21147;-60
2021/01/09 02:50:37;;;;;;;27.17;14.20;;;;;;;0.54;100.00;100791.90;1770828;81;21048;-60
2021/01/09 02:53:06;;;;;;;31.20;14.98;;;;;;;0.56;100.00;100795.46;1770783;80;21067;-60
2021/01/09 02:55:33;;;;;;;29.95;15.10;;;;;;;0.58;100.00;100805.14;1770805;81;21710;-60
2021/01/09 02:58:02;;;;;;;33.25;16.62;;;;;;;0.59;100.00;100812.19;1770659;81;21120;-60
2021/01/09 03:00:30;;;;;;;30.62;15.78;;;;;;;0.60;100.00;100800.75;1770738;81;21277;-60
2021/01/09 03:02:58;;;;;;;30.90;14.87;;;;;;;0.62;100.00;100805.60;1770855;81;21056;-60
2021/01/09 03:05:26;;;;;;;32.55;16.27;;;;;;;0.64;100.00;100813.09;1770785;81;21075;-60
2021/01/09 03:07:53;;;;;;;29.87;15.25;;;;;;;0.64;100.00;100811.32;1770844;81;21368;-60
2021/01/09 03:10:21;;;;;;;35.68;16.25;;;;;;;0.65;100.00;100813.54;1770667;81;21155;-60
2021/01/09 03:12:48;;;;;;;32.05;15.08;;;;;;;0.66;100.00;100811.34;1770878;80;21075;-59
2021/01/09 03:15:16;;;;;;;28.32;14.43;;;;;;;0.66;100.00;100812.24;1770759;81;21051;-59
2021/01/09 03:17:43;;;;;;;43.83;16.32;;;;;;;0.68;100.00;100828.06;1770869;81;21179;-59
2021/01/09 03:20:12;;;;;;;29.18;15.13;;;;;;;0.68;100.00;100813.55;1770801;80;21359;-60
2021/01/09 03:22:39;;;;;;;29.25;13.98;;;;;;;0.69;100.00;100820.59;1770794;81;21155;-59
2021/01/09 03:25:09;;;;;;;37.48;15.03;;;;;;;0.71;100.00;100825.45;1770882;81;21580;-60
2021/01/09 03:27:37;;;;;;;31.10;15.23;;;;;;;0.71;100.00;100831.62;1770743;79;20985;-60
2021/01/09 03:30:06;;;;;;;27.30;13.95;;;;;;;0.71;100.00;100826.77;1770815;81;21089;-59
2021/01/09 03:32:34;;;;;;;28.32;13.35;;;;;;;0.71;100.00;100839.54;1770791;81;21428;-59
2021/01/09 03:35:03;;;;;;;29.18;14.05;;;;;;;0.71;100.00;100849.20;1770853;81;21557;-59
2021/01/09 03:37:31;;;;;;;27.95;15.10;;;;;;;0.70;100.00;100843.05;1769924;80;21138;-59
2021/01/09 03:39:59;;;;;;;30.88;14.65;;;;;;;0.71;100.00;100839.97;1769193;81;21050;-59
2021/01/09 03:42:26;;;;;;;24.70;14.45;;;;;;;0.72;100.00;100849.64;1769108;81;21058;-59
2021/01/09 03:44:54;;;;;;;26.62;13.05;;;;;;;0.72;100.00;100845.69;1769166;81;21390;-59
2021/01/09 03:47:21;;;;;;;26.02;13.93;;;;;;;0.75;100.00;100861.99;1769054;81;21119;-59
2021/01/09 03:49:49;;;;;;;26.02;13.28;;;;;;;0.75;100.00;100848.80;1769156;80;21166;-59
2021/01/09 03:52:17;;;;;;;26.33;13.38;;;;;;;0.77;100.00;100854.52;1769214;81;21051;-59
2021/01/09 03:54:45;;;;;;;24.55;12.20;;;;;;;0.77;100.00;100867.70;1769157;81;21043;-60
2021/01/09 03:57:13;;;;;;;23.85;12.53;;;;;;;0.78;100.00;100873.89;1769115;81;21703;-60
2021/01/09 03:59:40;;;;;;;29.30;12.45;;;;;;;0.79;100.00;100881.83;1769079;81;21118;-59
2021/01/09 04:02:08;;;;;;;24.27;13.22;;;;;;;0.79;100.00;100878.30;1769141;80;21083;-59
2021/01/09 04:04:35;;;;;;;27.45;13.15;;;;;;;0.78;100.00;100869.51;1769008;81;21055;-59
2021/01/09 04:07:03;;;;;;;26.07;13.53;;;;;;;0.79;100.00;100869.95;1769156;80;21114;-59
2021/01/09 04:09:31;;;;;;;25.65;13.32;;;;;;;0.82;100.00;100877.89;1769091;80;21374;-59
2021/01/09 04:11:58;;;;;;;26.60;14.83;;;;;;;0.84;100.00;100882.74;1769118;81;21095;-59
2021/01/09 04:14:25;;;;;;;24.52;13.45;;;;;;;0.87;100.00;100884.95;1769301;81;22214;-59
2021/01/09 04:16:53;;;;;;;27.85;14.07;;;;;;;0.88;100.00;100885.40;1769406;81;21157;-58
2021/01/09 04:19:20;;;;;;;27.93;13.90;;;;;;;0.89;100.00;100890.70;1769421;81;21182;-58
2021/01/09 04:21:51;;;;;;;27.25;13.30;;;;;;;0.91;100.00;100893.34;1769335;81;21333;-60
2021/01/09 04:24:20;;;;;;;31.02;15.60;;;;;;;0.93;100.00;100890.27;1769190;81;21169;-60
2021/01/09 04:26:57;;;;;;;33.98;16.62;;;;;;;0.95;100.00;100893.80;1772028;80;21071;-59
2021/01/09 04:29:25;;;;;;;33.15;16.97;;;;;;;0.97;100.00;100901.30;1762451;81;21059;-60
2021/01/09 04:31:53;;;;;;;43.83;22.17;;;;;;;0.99;100.00;100898.22;1793888;80;21099;-59
2021/01/09 04:34:23;;;;;;;34.95;17.00;;;;;;;1.02;100.00;100915.44;1762458;81;21481;-59
2021/01/09 04:36:50;;;;;;;32.33;16.30;;;;;;;1.05;100.00;100924.70;1771776;80;21071;-59
2021/01/09 04:39:18;;;;;;;28.85;15.08;;;;;;;1.05;100.00;100904.89;1763611;81;21191;-59
2021/01/09 04:41:45;;;;;;;28.98;14.75;;;;;;;1.04;100.00;100908.41;1769212;81;21208;-59
2021/01/09 04:44:13;;;;;;;31.97;16.25;;;;;;;1.04;100.00;100906.19;1769327;80;21136;-58
2021/01/09 04:46:52;;;;;;;33.20;17.12;;;;;;;1.04;100.00;100900.48;1769205;80;21374;-59
2021/01/09 04:49:24;;;;;;;40.95;21.00;;;;;;;1.06;100.00;100902.70;1769237;80;21162;-59
2021/01/09 04:51:52;;;;;;;36.75;18.85;;;;;;;1.09;100.00;100908.41;1769372;80;21147;-59
2021/01/09 04:54:22;;;;;;;34.18;17.07;;;;;;;1.10;100.00;100912.40;1769355;81;21534;-59
2021/01/09 04:56:51;;;;;;;35.15;16.77;;;;;;;1.10;100.00;100919.00;1769264;81;21144;-59
2021/01/09 04:59:19;;;;;;;31.02;15.80;;;;;;;1.12;100.00;100925.63;1769183;81;21519;-58
2021/01/09 05:01:49;;;;;;;35.33;18.37;;;;;;;1.11;100.00;100939.25;1769202;81;21088;-59
2021/01/09 05:04:17;;;;;;;37.50;17.45;;;;;;;1.15;100.00;100932.25;1769259;80;21076;-59
2021/01/09 05:06:46;;;;;;;40.38;20.88;;;;;;;1.16;100.00;100930.47;1769231;81;21059;-59
2021/01/09 05:09:16;;;;;;;32.73;16.80;;;;;;;1.15;100.00;100945.45;1769196;80;21065;-58
2021/01/09 05:11:45;;;;;;;28.10;14.43;;;;;;;1.17;100.00;100948.09;1769285;81;21925;-58
2021/01/09 05:14:12;;;;;;;30.82;15.78;;;;;;;1.18;100.00;100964.38;1769110;81;21020;-59
2021/01/09 05:16:40;;;;;;;29.75;14.00;;;;;;;1.18;100.00;100949.85;1769256;81;21111;-59
2021/01/09 05:19:08;;;;;;;28.32;13.85;;;;;;;1.18;100.00;100947.21;1769191;81;21091;-58
2021/01/09 05:21:37;;;;;;;31.97;14.23;;;;;;;1.16;100.00;100954.24;1769264;81;21032;-58
2021/01/09 05:24:09;;;;;;;25.70;13.43;;;;;;;1.16;100.00;100956.88;1769235;81;21439;-58
2021/01/09 05:26:37;;;;;;;26.23;13.32;;;;;;;1.11;100.00;100957.74;1769173;80;21496;-58
2021/01/09 05:29:06;;;;;;;35.25;19.07;;;;;;;1.10;99.89;100967.86;1753840;81;21068;-58
2021/01/09 05:31:37;;;;;;;29.70;16.07;;;;;;;1.08;99.54;100956.41;1766994;81;21006;-58
2021/01/09 05:34:05;;;;;;;29.87;15.60;;;;;;;1.06;99.47;100956.83;1767098;81;21075;-58
2021/01/09 05:36:33;;;;;;;25.97;13.58;;;;;;;1.04;99.34;100966.50;1768016;80;21391;-58
2021/01/09 05:39:03;;;;;;;27.30;14.10;;;;;;;1.06;99.31;100962.11;1765316;81;21148;-58
2021/01/09 05:41:31;;;;;;;28.02;13.45;;;;;;;1.06;98.86;100970.03;1796856;79;21150;-58
2021/01/09 05:44:08;;;;;;;27.90;13.00;;;;;;;1.06;98.59;100966.49;1765429;81;21172;-58
2021/01/09 05:46:38;;;;;;;24.18;11.55;;;;;;;1.05;98.40;100978.83;1776832;80;21069;-58
2021/01/09 05:49:07;;;;;;;28.40;14.53;;;;;;;1.04;98.30;101012.72;1765133;81;21388;-58
2021/01/09 05:51:38;;;;;;;25.88;12.75;;;;;;;1.03;98.17;101018.87;1776784;80;20944;-58
2021/01/09 05:54:07;;;;;;;24.72;12.93;;;;;;;1.05;98.16;101013.58;1765469;81;21493;-58
2021/01/09 05:56:39;;;;;;;25.05;12.73;;;;;;;1.07;98.06;100992.92;1776853;80;21059;-58
2021/01/09 05:59:07;;;;;;;25.65;13.45;;;;;;;1.09;97.93;101011.41;1765458;81;21528;-58
2021/01/09 06:01:34;;;;;;;25.62;12.93;;;;;;;1.09;97.45;101020.66;1776851;80;21378;-58
2021/01/09 06:04:10;;;;;;;25.60;11.57;;;;;;;1.11;97.30;101029.05;1765389;81;21121;-58
2021/01/09 06:06:56;;;;;;;25.10;13.43;;;;;;;1.11;96.84;101017.62;1776615;80;21083;-57
2021/01/09 06:09:32;;;;;;;27.45;13.60;;;;;;;1.10;96.45;101011.86;1765423;81;21136;-58
2021/01/09 06:11:58;;;;;;;28.20;14.18;;;;;;;1.11;96.54;101013.20;1796931;79;21471;-58
2021/01/09 06:14:27;;;;;;;27.80;12.98;;;;;;;1.14;96.33;101015.86;1765421;81;21362;-58
2021/01/09 06:16:55;;;;;;;28.12;15.85;;;;;;;1.17;96.33;101015.44;1765241;81;21072;-58
2021/01/09 06:19:22;;;;;;;28.55;14.63;;;;;;;1.19;96.17;101022.94;1797019;79;21497;-58
2021/01/09 06:21:53;;;;;;;29.10;14.68;;;;;;;1.20;96.01;101029.98;1739584;81;21232;-58
2021/01/09 06:24:21;;;;;;;28.00;13.85;;;;;;;1.20;95.90;101035.27;1796872;79;21126;-57
2021/01/09 06:26:49;;;;;;;27.45;13.40;;;;;;;1.18;96.11;101035.27;1765324;81;21381;-59
2021/01/09 06:29:29;;;;;;;27.65;15.03;;;;;;;1.19;96.55;101043.65;1771358;80;21076;-59
2021/01/09 06:32:04;;;;;;;33.45;15.13;;;;;;;1.20;96.68;101049.80;1756709;81;21109;-59
2021/01/09 06:34:33;;;;;;;29.27;14.80;;;;;;;1.22;96.86;101048.08;1770848;80;21520;-57
2021/01/09 06:37:03;;;;;;;24.25;12.95;;;;;;;1.24;96.98;101058.22;1756634;81;21137;-58
2021/01/09 06:39:38;;;;;;;30.15;14.15;;;;;;;1.26;97.07;101061.76;1770791;80;21130;-58
2021/01/09 06:42:08;;;;;;;26.70;14.55;;;;;;;1.27;97.08;101062.20;1756754;81;21058;-58
2021/01/09 06:44:36;;;;;;;31.68;16.07;;;;;;;1.31;97.08;101071.02;1776806;80;21507;-58
2021/01/09 06:47:03;;;;;;;28.55;14.18;;;;;;;1.34;97.00;101072.39;1756797;81;21160;-58
2021/01/09 06:49:31;;;;;;;24.18;12.50;;;;;;;1.38;97.09;101082.98;1770772;81;21170;-59
2021/01/09 06:52:03;;;;;;;27.70;13.75;;;;;;;1.42;97.03;101078.61;1756722;81;21370;-58
2021/01/09 06:54:44;;;;;;;31.33;14.68;;;;;;;1.45;96.74;101085.24;1776736;80;21122;-58
2021/01/09 06:57:19;;;;;;;24.27;13.38;;;;;;;1.46;96.36;101098.03;1771585;80;21193;-58
2021/01/09 06:59:50;;;;;;;28.57;14.20;;;;;;;1.41;96.27;101101.50;1756702;81;21045;-58
2021/01/09 07:02:26;;;;;;;31.20;15.80;;;;;;;1.43;96.26;101096.24;1776772;80;21097;-58
2021/01/09 07:05:09;;;;;;;30.43;14.38;;;;;;;1.41;96.15;101109.42;1776893;80;21204;-58
2021/01/09 07:07:59;;;;;;;29.40;14.83;;;;;;;1.43;96.17;101110.77;1755066;81;21098;-58
2021/01/09 07:10:28;;;;;;;33.50;15.25;;;;;;;1.42;96.02;101103.27;1723490;80;21063;-57
2021/01/09 07:12:59;;;;;;;31.42;15.18;;;;;;;1.45;96.23;101112.13;1776789;80;21233;-57
2021/01/09 07:15:27;;;;;;;33.15;15.53;;;;;;;1.49;96.15;101110.81;1776275;80;21127;-57
2021/01/09 07:18:01;;;;;;;30.08;15.43;;;;;;;1.49;95.85;101116.55;1756663;81;21696;-58
2021/01/09 07:20:42;;;;;;;26.60;12.30;;;;;;;1.46;95.59;101126.65;1743045;81;21083;-58
2021/01/09 07:23:12;;;;;;;28.70;14.18;;;;;;;1.43;95.27;101120.02;1730556;81;21209;-57
2021/01/09 07:25:44;;;;;;;30.48;16.15;;;;;;;1.42;95.21;101109.00;1743500;81;21179;-57
2021/01/09 07:28:24;;;;;;;28.73;13.38;;;;;;;1.41;94.92;101114.70;1756336;81;21144;-58
2021/01/09 07:31:04;;;;;;;35.70;15.25;;;;;;;1.43;95.09;101112.96;1776715;80;21202;-57
2021/01/09 07:33:33;;;;;;;24.65;13.62;;;;;;;1.50;95.27;101107.75;1756222;81;21133;-57
2021/01/09 07:36:06;;;;;;;32.03;15.20;;;;;;;1.59;95.00;101116.20;1776789;80;21166;-57
2021/01/09 07:38:31;;;;;;;33.35;15.45;;;;;;;1.64;94.56;101117.98;1771011;80;21170;-56
2021/01/09 07:41:02;;;;;;;27.58;14.05;;;;;;;1.71;94.30;101124.20;1770804;81;21110;-58
2021/01/09 07:43:41;;;;;;;27.98;14.58;;;;;;;1.77;93.76;101122.05;1770733;81;21669;-58
2021/01/09 07:46:29;;;;;;;30.27;14.60;;;;;;;1.83;93.56;101124.73;1770749;81;21071;-58
2021/01/09 07:48:58;;;;;;;31.33;14.83;;;;;;;1.89;92.91;101131.83;1770975;81;21476;-58
2021/01/09 07:51:49;;;;;;;26.85;14.40;;;;;;;1.94;92.20;101138.93;1770998;81;21494;-58
2021/01/09 07:54:40;;;;;;;33.90;16.40;;;;;;;1.99;92.25;101139.84;1770959;81;21139;-56
2021/01/09 07:57:24;;;;;;;32.53;16.90;;;;;;;2.07;92.00;101154.86;1770935;81;21310;-58
2021/01/09 08:00:01;;;;;;;32.08;15.83;;;;;;;2.13;91.49;101147.86;1771005;81;21155;-57
2021/01/09 08:02:34;;;;;;;26.73;12.65;;;;;;;2.17;91.00;101159.36;1770780;80;21139;-57
2021/01/09 08:05:11;;;;;;;28.50;14.70;;;;;;;2.19;90.36;101168.61;1770958;81;21103;-57
2021/01/09 08:07:44;;;;;;;31.87;14.87;;;;;;;2.20;90.14;101180.54;1770918;81;21056;-57
2021/01/09 08:10:24;;;;;;;27.00;13.67;;;;;;;2.22;89.45;101176.14;1771031;80;21201;-58
2021/01/09 08:13:03;;;;;;;26.20;13.88;;;;;;;2.26;89.57;101179.24;1770932;81;21131;-57
2021/01/09 08:15:33;;;;;;;27.98;13.05;;;;;;;2.32;89.30;101182.80;1770894;81;21127;-58
2021/01/09 08:18:04;;;;;;;26.33;12.80;;;;;;;2.36;88.36;101192.55;1771059;81;21579;-57
2021/01/09 08:20:31;;;;;;;30.60;15.00;;;;;;;2.35;87.59;101194.30;1770993;81;21131;-57
2021/01/09 08:23:03;;;;;;;25.62;13.05;;;;;;;2.34;87.13;101192.53;1770805;81;21200;-57
2021/01/09 08:25:38;;;;;;;25.30;13.13;;;;;;;2.33;86.67;101197.83;1770804;81;21143;-58
2021/01/09 08:28:06;;;;;;;29.27;14.30;;;;;;;2.34;87.14;101195.63;1773669;79;20930;-58
2021/01/09 08:30:39;;;;;;;28.60;14.68;;;;;;;2.39;86.87;101195.21;1795723;79;21170;-58
2021/01/09 08:33:13;;;;;;;26.75;14.33;;;;;;;2.46;87.14;101191.71;1795559;79;21146;-58
2021/01/09 08:35:50;;;;;;;28.25;13.45;;;;;;;2.53;87.29;101188.22;1795873;79;21200;-58
2021/01/09 08:38:18;;;;;;;31.82;15.60;;;;;;;2.56;86.50;101186.94;1794188;79;21079;-57
2021/01/09 08:40:45;;;;;;;27.82;13.48;;;;;;;2.53;85.97;101193.96;1762502;81;21041;-57
2021/01/09 08:43:13;;;;;;;29.90;16.12;;;;;;;2.47;85.59;101204.07;1773881;80;21139;-57
2021/01/09 08:45:50;;;;;;;33.30;16.17;;;;;;;2.46;85.65;101192.17;1762678;81;21196;-58
2021/01/09 08:48:46;;;;;;;29.35;15.32;;;;;;;2.53;86.23;101192.19;1793445;80;21384;-58
2021/01/09 08:51:13;;;;;;;29.05;14.43;;;;;;;2.60;86.41;101210.31;1732407;82;21492;-57
2021/01/09 08:53:55;;;;;;;28.35;13.20;;;;;;;2.62;85.16;101207.69;1757581;81;21095;-57
2021/01/09 08:56:27;;;;;;;25.48;12.93;;;;;;;2.57;84.55;101201.94;1755922;81;21095;-57
2021/01/09 08:58:55;;;;;;;25.30;13.60;;;;;;;2.55;84.40;101193.53;1757604;81;21070;-58
2021/01/09 09:01:27;;;;;;;25.95;13.45;;;;;;;2.54;84.00;101199.28;1735079;81;21369;-57
2021/01/09 09:03:56;;;;;;;28.35;13.05;;;;;;;2.51;83.60;101191.30;1757547;81;21133;-58
2021/01/09 09:06:23;;;;;;;26.77;13.38;;;;;;;2.49;83.97;101200.98;1762461;81;21035;-57
2021/01/09 09:08:51;;;;;;;31.57;15.20;;;;;;;2.50;83.97;101194.81;1757560;81;21137;-57
2021/01/09 09:11:19;;;;;;;27.45;13.00;;;;;;;2.55;84.44;101202.38;1762380;81;21162;-58
2021/01/09 09:14:06;;;;;;;23.22;11.97;;;;;;;2.62;83.84;101204.59;1732123;81;21377;-58
2021/01/09 09:16:37;;;;;;;27.48;13.90;;;;;;;2.64;83.65;101199.31;1762435;81;21000;-58
2021/01/09 09:19:17;;;;;;;32.48;16.37;;;;;;;2.68;83.87;101198.45;1757585;81;21510;-58
2021/01/09 09:21:46;;;;;;;26.30;12.93;;;;;;;2.76;84.09;101198.48;1762428;81;21205;-57
2021/01/09 09:24:16;;;;;;;31.40;15.43;;;;;;;2.89;84.11;101199.42;1757583;81;21097;-58
2021/01/09 09:26:43;;;;;;;27.42;14.60;;;;;;;2.96;83.95;101191.52;1762439;81;21204;-56
2021/01/09 09:29:13;;;;;;;26.27;13.20;;;;;;;3.02;84.13;101185.36;1757528;81;21098;-58
2021/01/09 09:31:42;;;;;;;25.85;13.25;;;;;;;3.12;84.23;101191.11;1762434;81;20964;-58
2021/01/09 09:34:16;;;;;;;29.77;15.00;;;;;;;3.23;84.07;101187.62;1757499;81;21560;-58
2021/01/09 09:36:57;;;;;;;25.62;13.05;;;;;;;3.29;83.72;101202.20;1763299;81;20990;-58
2021/01/09 09:39:25;;;;;;;38.23;14.68;;;;;;;3.35;83.60;101185.44;1767792;81;21389;-57
2021/01/09 09:42:01;;;;;;;34.63;13.88;;;;;;;3.38;83.02;101180.14;1767434;81;21081;-58
2021/01/09 09:44:38;;;;;;;31.70;13.75;;;;;;;3.42;82.88;101177.94;1767615;81;21124;-57
2021/01/09 09:47:10;;;;;;;30.72;14.78;;;;;;;3.49;82.54;101177.50;1767485;81;21184;-57
2021/01/09 09:49:47;;;;;;;23.30;11.83;;;;;;;3.55;81.64;101173.53;1873155;76;22668;-57
2021/01/09 09:52:20;;;;;;;38.55;13.55;;;;;;;3.50;81.33;101179.27;1841162;78;21100;-57
2021/01/09 09:55:02;;;;;;;26.45;12.58;;;;;;;3.52;81.24;101177.50;1840902;78;21187;-57
2021/01/09 09:57:30;;;;;;;25.45;12.78;;;;;;;3.50;80.78;101188.55;1840907;78;21473;-57
2021/01/09 10:00:16;;;;;;;24.80;12.37;;;;;;;3.52;81.00;101188.98;1841031;78;20978;-57
2021/01/09 10:02:55;;;;;;;23.15;11.57;;;;;;;3.57;80.79;101184.59;1840917;77;21410;-57
2021/01/09 10:05:24;;;;;;;21.77;11.75;;;;;;;3.56;79.75;101188.12;1841052;78;20989;-57
2021/01/09 10:08:16;;;;;;;19.27;10.08;;;;;;;3.48;78.49;101191.64;1841054;78;21356;-57
2021/01/09 10:10:47;;;;;;;20.55;10.05;;;;;;;3.39;77.73;101188.08;1841053;78;21021;-58
2021/01/09 10:13:29;;;;;;;18.82;10.18;;;;;;;3.27;77.86;101185.42;1812170;78;21557;-57
2021/01/09 10:15:57;;;;;;;17.75;8.95;;;;;;;3.21;78.21;101191.58;1841033;78;21049;-58
2021/01/09 10:18:26;;;;;;;23.47;10.50;;;;;;;3.17;78.22;101191.56;1841045;78;21046;-57
2021/01/09 10:20:54;;;;;;;23.05;9.43;;;;;;;3.17;79.54;101187.59;1841150;77;22251;-58
2021/01/09 10:23:23;;;;;;;19.23;10.38;;;;;;;3.19;79.91;101192.45;1841030;78;21108;-57
2021/01/09 10:25:51;;;;;;;24.57;10.28;;;;;;;3.18;80.55;101180.08;1841000;78;21564;-57
2021/01/09 10:28:18;;;;;;;17.50;9.03;;;;;;;3.19;81.02;101179.20;1840943;78;20989;-57
2021/01/09 10:30:47;;;;;;;19.75;10.28;;;;;;;3.19;80.65;101180.52;1841018;78;21616;-57
2021/01/09 10:33:16;;;;;;;18.20;7.78;;;;;;;3.22;81.31;101187.18;1841001;78;21530;-56
2021/01/09 10:35:47;;;;;;;21.48;10.48;;;;;;;3.26;80.83;101199.55;1841046;78;21552;-56
2021/01/09 10:38:16;;;;;;;17.67;8.30;;;;;;;3.20;81.18;101201.73;1830923;78;21055;-57
2021/01/09 10:40:44;;;;;;;22.73;9.83;;;;;;;3.18;81.28;101199.53;1828154;78;21538;-57
2021/01/09 10:43:11;;;;;;;23.25;9.30;;;;;;;3.20;81.88;101195.54;1828099;78;21083;-57
2021/01/09 10:45:40;;;;;;;17.12;8.60;;;;;;;3.18;81.87;101198.63;1828161;78;21201;-57
2021/01/09 10:48:07;;;;;;;19.92;10.38;;;;;;;3.12;82.19;101195.09;1827903;78;21209;-57
2021/01/09 10:50:36;;;;;;;20.17;10.00;;;;;;;3.10;82.48;101195.53;1828154;78;21043;-57
2021/01/09 10:53:05;;;;;;;21.50;11.50;;;;;;;3.07;82.86;101193.30;1828041;78;21130;-56
2021/01/09 10:55:34;;;;;;;23.38;12.05;;;;;;;3.06;83.22;101191.10;1828241;78;21289;-56
2021/01/09 10:58:01;;;;;;;23.25;12.18;;;;;;;3.11;83.67;101198.62;1828146;78;21192;-56
2021/01/09 11:00:29;;;;;;;25.75;12.60;;;;;;;3.11;83.72;101197.30;1827569;78;20996;-56
2021/01/09 11:02:57;;;;;;;26.73;13.08;;;;;;;3.10;83.65;101187.58;1827587;78;20968;-56
2021/01/09 11:05:30;;;;;;;24.30;12.03;;;;;;;3.06;83.51;101184.48;1827446;77;20924;-57
2021/01/09 11:07:55;;;;;;;27.22;13.80;;;;;;;3.00;83.82;101189.77;1827433;78;21102;-56
2021/01/09 11:10:24;;;;;;;29.42;12.98;;;;;;;2.99;84.36;101189.33;1827522;77;20999;-56
2021/01/09 11:12:54;;;;;;;25.90;12.28;;;;;;;3.06;84.67;101188.45;1825972;78;20932;-56
2021/01/09 11:15:21;;;;;;;30.10;15.72;;;;;;;3.13;84.59;101190.23;1827400;78;21000;-57
2021/01/09 11:17:49;;;;;;;23.20;10.90;;;;;;;3.22;84.92;101195.13;1827528;78;21038;-56
2021/01/09 11:20:16;;;;;;;22.27;11.73;;;;;;;3.29;83.38;101199.56;1827547;78;21018;-56
2021/01/09 11:22:45;;;;;;;27.25;13.15;;;;;;;3.28;82.55;101199.11;1827536;78;21185;-56
2021/01/09 11:25:12;;;;;;;25.95;12.65;;;;;;;3.18;82.46;101193.33;1827462;78;21089;-56
2021/01/09 11:27:40;;;;;;;20.05;11.38;;;;;;;3.09;83.08;101197.73;1827534;78;21046;-56
2021/01/09 11:30:12;;;;;;;25.27;14.47;;;;;;;3.05;83.11;101194.64;1827561;78;21059;-56